Terminal Aerodrome Forecast
Issued by NWS

Home | Current Version | Previous Version | Graphics & Text | Print | Product List | Glossary On
Versions: 1 2 3 4 5 6 7 8 9 10 11 12 13 14 15 16
452
FTUS43 KMPX 242323
TAFAXN
TAF
KAXN 242323Z 2500/2524 35014G22KT P6SM SKC
     FM250900 33008KT P6SM SKC
     FM251600 28011KT P6SM SCT035 BKN070=

USA.gov is the U.S. government's official web portal to all federal, state and local government web resources and services.